createdAt,value
2022-11-28T00:04:26.384Z,7.20
2022-11-28T00:10:19.778Z,7.20
2022-11-28T00:16:16.665Z,7.20
2022-11-28T00:22:11.736Z,7.20
2022-11-28T00:28:05.211Z,7.10
2022-11-28T00:33:59.517Z,7.10
2022-11-28T00:39:54.673Z,7.00
2022-11-28T00:45:48.273Z,7.00
2022-11-28T00:51:41.976Z,7.10
2022-11-28T00:57:36.519Z,7.00
2022-11-28T01:03:30.163Z,7.10
2022-11-28T01:09:26.548Z,7.20
2022-11-28T01:15:21.615Z,7.20
2022-11-28T01:21:15.176Z,7.10
2022-11-28T01:27:08.253Z,7.20
2022-11-28T01:33:03.264Z,7.20
2022-11-28T01:38:56.956Z,7.10
2022-11-28T01:45:20.321Z,7.10
2022-11-28T01:51:15.671Z,7.10
2022-11-28T01:57:13.860Z,7.20
2022-11-28T02:03:11.335Z,7.20
2022-11-28T02:09:11.091Z,7.20
2022-11-28T02:15:27.457Z,7.10
2022-11-28T02:21:42.989Z,7.00
2022-11-28T02:28:13.888Z,7.10
2022-11-28T02:34:14.860Z,7.00
2022-11-28T02:40:15.603Z,7.00
2022-11-28T02:46:13.652Z,7.00
2022-11-28T02:52:13.680Z,6.90
2022-11-28T02:58:07.167Z,7.00
2022-11-28T03:04:20.473Z,6.90
2022-11-28T03:10:28.632Z,7.00
2022-11-28T03:16:28.385Z,7.00
2022-11-28T03:22:30.063Z,6.90
2022-11-28T03:28:29.349Z,6.90
2022-11-28T03:34:25.645Z,6.90
2022-11-28T03:40:23.420Z,6.90
2022-11-28T03:46:21.600Z,6.70
2022-11-28T03:52:20.005Z,6.80
2022-11-28T03:58:22.206Z,6.90
2022-11-28T04:04:24.361Z,6.80
2022-11-28T04:10:22.689Z,6.80
2022-11-28T04:16:22.246Z,6.70
2022-11-28T04:22:21.359Z,6.70
2022-11-28T04:28:19.449Z,6.70
2022-11-28T04:34:19.256Z,6.80
2022-11-28T04:40:15.091Z,6.60
2022-11-28T04:46:14.679Z,6.70
2022-11-28T04:52:13.071Z,6.50
2022-11-28T04:58:12.397Z,6.70
2022-11-28T05:04:06.155Z,6.70
2022-11-28T05:09:59.643Z,6.70
2022-11-28T05:15:54.659Z,6.70
2022-11-28T05:21:48.181Z,6.70
2022-11-28T05:27:41.733Z,6.70
2022-11-28T05:33:36.601Z,6.70
2022-11-28T05:39:30.055Z,6.10
2022-11-28T05:45:23.655Z,6.30
2022-11-28T05:51:19.094Z,6.10
2022-11-28T05:57:16.358Z,6.20
2022-11-28T06:03:09.833Z,6.40
2022-11-28T06:09:06.430Z,6.40
2022-11-28T06:14:59.895Z,6.40
2022-11-28T06:20:53.470Z,6.70
2022-11-28T06:26:48.382Z,6.70
2022-11-28T06:32:41.921Z,6.80
2022-11-28T06:38:35.959Z,6.80
2022-11-28T06:44:30.974Z,6.90
2022-11-28T06:50:24.395Z,6.80
2022-11-28T06:56:20.400Z,6.80
2022-11-28T07:02:14.888Z,6.70
2022-11-28T07:08:08.687Z,6.80
2022-11-28T07:14:03.735Z,6.50
2022-11-28T07:19:58.548Z,6.60
2022-11-28T07:25:52.011Z,6.70
2022-11-28T07:31:46.036Z,6.60
2022-11-28T07:37:40.919Z,6.50
2022-11-28T07:43:34.404Z,6.40
2022-11-28T07:49:28.152Z,6.60
2022-11-28T07:55:24.008Z,6.50
2022-11-28T08:01:19.185Z,6.50
2022-11-28T08:07:14.629Z,6.50
2022-11-28T08:13:09.518Z,6.50
2022-11-28T08:19:03.739Z,6.40
2022-11-28T08:24:57.265Z,6.40
2022-11-28T08:30:52.160Z,6.50
2022-11-28T08:36:47.656Z,6.40
2022-11-28T08:42:41.163Z,6.50
2022-11-28T08:48:36.100Z,6.60
2022-11-28T08:54:29.841Z,6.70
2022-11-28T09:00:23.691Z,6.60
2022-11-28T09:06:18.944Z,6.70
2022-11-28T09:12:12.038Z,6.60
2022-11-28T09:18:05.201Z,6.60
2022-11-28T09:23:59.625Z,6.60
2022-11-28T09:29:53.104Z,6.60
2022-11-28T09:35:46.652Z,6.70
2022-11-28T09:41:46.082Z,6.70
2022-11-28T09:47:43.288Z,6.80
2022-11-28T09:53:43.395Z,6.70
2022-11-28T09:59:38.241Z,6.80
2022-11-28T10:05:38.508Z,6.70
2022-11-28T10:11:44.068Z,6.70
2022-11-28T10:17:49.242Z,6.80
2022-11-28T10:23:46.255Z,7.00
2022-11-28T10:29:47.255Z,6.70
2022-11-28T10:35:47.954Z,6.80
2022-11-28T10:41:46.825Z,6.80
2022-11-28T10:48:37.999Z,6.80
2022-11-28T10:54:43.622Z,6.80
2022-11-28T11:00:38.695Z,6.70
2022-11-28T11:06:41.311Z,6.70
2022-11-28T11:12:43.990Z,6.70
2022-11-28T11:18:51.726Z,6.80
2022-11-28T11:24:45.230Z,6.80
2022-11-28T11:30:42.940Z,6.70
2022-11-28T11:36:38.637Z,6.80
2022-11-28T11:42:34.572Z,6.70
2022-11-28T11:48:37.277Z,6.60
2022-11-28T11:54:31.012Z,6.90
2022-11-28T12:00:28.808Z,6.90
2022-11-28T12:06:27.542Z,6.90
2022-11-28T12:12:25.273Z,6.90
2022-11-28T12:18:28.566Z,6.90
2022-11-28T12:24:32.809Z,6.90
2022-11-28T12:30:41.946Z,7.00
2022-11-28T12:36:42.898Z,7.10
2022-11-28T12:42:56.670Z,7.10
2022-11-28T12:49:04.420Z,7.20
2022-11-28T12:55:21.649Z,7.10
2022-11-28T13:01:31.371Z,7.10
2022-11-28T13:07:34.855Z,7.10
2022-11-28T13:13:33.633Z,7.00
2022-11-28T13:19:39.420Z,7.00
2022-11-28T13:25:41.212Z,7.00
2022-11-28T13:31:41.720Z,7.10
2022-11-28T13:44:03.386Z,6.80
2022-11-28T13:50:38.518Z,7.00
2022-11-28T13:56:33.352Z,7.00
2022-11-28T14:02:37.970Z,6.90
2022-11-28T14:08:36.944Z,6.90
2022-11-28T14:14:57.681Z,6.90
2022-11-28T14:20:58.751Z,6.90
2022-11-28T14:27:00.241Z,6.90
2022-11-28T14:32:59.793Z,6.70
2022-11-28T14:39:34.065Z,6.70
2022-11-28T14:45:45.966Z,6.70
2022-11-28T14:52:46.144Z,6.60
2022-11-28T14:58:35.349Z,6.70
2022-11-28T15:04:44.297Z,6.80
2022-11-28T15:10:49.458Z,6.80
2022-11-28T15:16:50.440Z,6.70
2022-11-28T15:22:47.062Z,6.70
2022-11-28T15:28:40.552Z,6.80
2022-11-28T15:34:37.533Z,6.80
2022-11-28T15:40:33.427Z,6.70
2022-11-28T15:46:31.520Z,6.80
2022-11-28T15:52:26.512Z,6.70
2022-11-28T15:58:21.415Z,6.80
2022-11-28T16:04:17.575Z,6.70
2022-11-28T16:10:25.476Z,6.70
2022-11-28T16:16:24.291Z,6.60
2022-11-28T16:22:20.518Z,6.60
2022-11-28T16:28:31.797Z,6.60
2022-11-28T16:34:46.676Z,6.60
2022-11-28T16:40:54.343Z,6.70
2022-11-28T16:46:53.306Z,6.60
2022-11-28T16:52:54.458Z,6.50
2022-11-28T16:58:47.947Z,6.50
2022-11-28T17:04:42.769Z,6.60
2022-11-28T17:10:36.259Z,6.50
2022-11-28T17:16:29.956Z,6.60
2022-11-28T17:22:26.684Z,6.60
2022-11-28T17:28:23.234Z,6.70
2022-11-28T17:34:21.276Z,6.70
2022-11-28T17:40:36.981Z,6.70
2022-11-28T17:46:30.458Z,6.70
2022-11-28T17:52:30.508Z,6.70
2022-11-28T17:58:26.254Z,6.70
2022-11-28T18:04:19.888Z,6.70
2022-11-28T18:10:13.734Z,6.70
2022-11-28T18:16:09.762Z,6.70
2022-11-28T18:22:03.312Z,6.60
2022-11-28T18:27:56.869Z,6.70
2022-11-28T18:33:52.927Z,6.70
2022-11-28T18:39:50.709Z,6.60
2022-11-28T18:45:44.431Z,6.60
2022-11-28T18:51:45.601Z,6.70
2022-11-28T18:57:41.828Z,6.60
2022-11-28T19:03:35.351Z,6.70
2022-11-28T19:09:30.629Z,6.70
2022-11-28T19:15:23.724Z,6.70
2022-11-28T19:21:19.276Z,6.70
2022-11-28T19:27:14.780Z,6.60
2022-11-28T19:33:09.442Z,6.70
2022-11-28T19:39:03.992Z,6.70
2022-11-28T19:44:58.873Z,6.70
2022-11-28T19:50:52.384Z,6.70
2022-11-28T19:56:45.840Z,6.80
2022-11-28T20:02:41.418Z,6.70
2022-11-28T20:08:34.986Z,6.70
2022-11-28T20:14:31.743Z,6.80
2022-11-28T20:20:27.376Z,6.70
2022-11-28T20:26:23.334Z,6.70
2022-11-28T20:32:17.189Z,6.70
2022-11-28T20:38:11.963Z,6.80
2022-11-28T20:44:05.631Z,6.70
2022-11-28T20:49:59.075Z,6.70
2022-11-28T20:56:00.513Z,6.70
2022-11-28T21:01:54.000Z,6.70
2022-11-28T21:07:47.219Z,6.80
2022-11-28T21:13:43.249Z,6.80
2022-11-28T21:19:36.692Z,6.80
2022-11-28T21:25:30.205Z,6.60
2022-11-28T21:31:27.096Z,6.80
2022-11-28T21:37:20.162Z,6.70
2022-11-28T21:43:13.623Z,6.80
2022-11-28T21:49:08.571Z,6.80
2022-11-28T21:55:06.366Z,6.80
2022-11-28T22:01:00.925Z,6.80
2022-11-28T22:06:55.783Z,6.90
2022-11-28T22:12:49.325Z,6.90
2022-11-28T22:18:43.296Z,6.80
2022-11-28T22:24:38.604Z,6.80
2022-11-28T22:30:32.224Z,6.90
2022-11-28T22:36:26.085Z,6.90
2022-11-28T22:42:24.584Z,6.90
2022-11-28T22:48:18.517Z,6.90
2022-11-28T22:54:13.752Z,6.90
2022-11-28T23:00:10.605Z,6.80
2022-11-28T23:06:06.292Z,6.80
2022-11-28T23:12:01.956Z,6.90
2022-11-28T23:17:57.400Z,6.80
2022-11-28T23:23:51.523Z,6.90
2022-11-28T23:29:45.257Z,6.90
2022-11-28T23:35:41.135Z,6.90
2022-11-28T23:41:34.761Z,6.90
2022-11-28T23:47:28.199Z,6.80
2022-11-28T23:53:23.203Z,6.80
2022-11-28T23:59:16.791Z,6.80
